Time;durP1;ratioP1;P1;durP2;ratioP2;P2;SDS_P1;SDS_P2;PMS_P1;PMS_P2;Temp;Humidity;BMP_temperature;BMP_pressure;BME280_temperature;BME280_humidity;BME280_pressure;Samples;Min_cycle;Max_cycle;Signal;HPM_P1;HPM_P2
2022/12/10 00:02:26;;;;;;;23.15;16.35;;;3.60;99.90;;;;;;5037000;28;20342;-78
2022/12/10 00:05:13;;;;;;;22.42;16.55;;;3.60;99.90;;;;;;5035778;28;20233;-78
2022/12/10 00:07:58;;;;;;;24.08;17.00;;;3.50;99.90;;;;;;5041711;28;20201;-78
2022/12/10 00:10:44;;;;;;;21.45;15.35;;;3.60;99.90;;;;;;5037267;28;20263;-79
2022/12/10 00:13:29;;;;;;;23.23;17.42;;;3.60;99.90;;;;;;5054372;28;20193;-78
2022/12/10 00:16:17;;;;;;;21.73;15.77;;;3.60;99.90;;;;;;5054015;28;20669;-77
2022/12/10 00:19:03;;;;;;;23.92;18.10;;;3.60;99.90;;;;;;5053928;28;20275;-77
2022/12/10 00:21:50;;;;;;;22.48;17.10;;;3.60;99.90;;;;;;5053256;28;20186;-77
2022/12/10 00:24:36;;;;;;;23.70;15.98;;;3.60;99.90;;;;;;5053089;28;20662;-77
2022/12/10 00:27:21;;;;;;;23.75;17.45;;;3.50;99.90;;;;;;5053561;28;20244;-78
2022/12/10 00:30:08;;;;;;;22.20;15.77;;;3.60;99.90;;;;;;5053752;28;20722;-78
2022/12/10 00:32:54;;;;;;;24.60;17.45;;;3.60;99.90;;;;;;5053761;28;20189;-77
2022/12/10 00:35:39;;;;;;;23.95;16.75;;;3.60;99.90;;;;;;5053548;28;20205;-78
2022/12/10 00:38:26;;;;;;;22.98;16.30;;;3.60;99.90;;;;;;5053513;28;20232;-78
2022/12/10 00:41:12;;;;;;;23.50;17.17;;;3.60;99.90;;;;;;5053514;28;20610;-77
2022/12/10 00:43:58;;;;;;;24.52;18.15;;;3.50;99.90;;;;;;5053778;28;20185;-77
2022/12/10 00:46:53;;;;;;;27.75;18.02;;;3.50;99.90;;;;;;5053327;28;20260;-77
2022/12/10 00:49:39;;;;;;;25.52;16.33;;;3.50;99.90;;;;;;5053338;28;20220;-77
2022/12/10 00:52:24;;;;;;;24.33;17.08;;;3.60;99.90;;;;;;5053501;28;20193;-77
2022/12/10 00:55:11;;;;;;;23.52;17.65;;;3.60;99.90;;;;;;5053302;28;20192;-77
2022/12/10 00:57:57;;;;;;;26.40;17.63;;;3.60;99.90;;;;;;5053272;28;20232;-77
2022/12/10 01:00:43;;;;;;;28.63;19.15;;;3.60;99.90;;;;;;5043327;28;20209;-77
2022/12/10 01:03:28;;;;;;;24.92;16.38;;;3.60;99.90;;;;;;5033156;28;20190;-77
2022/12/10 01:06:17;;;;;;;27.70;18.48;;;3.60;99.90;;;;;;5033524;28;20552;-77
2022/12/10 01:09:06;;;;;;;24.95;17.67;;;3.50;99.90;;;;;;5040939;28;20229;-77
2022/12/10 01:11:54;;;;;;;26.50;19.15;;;3.60;99.90;;;;;;5032600;28;20580;-77
2022/12/10 01:14:40;;;;;;;30.13;20.23;;;3.50;99.90;;;;;;5032641;28;20206;-77
2022/12/10 01:17:25;;;;;;;32.33;19.60;;;3.60;99.90;;;;;;5033177;28;20193;-77
2022/12/10 01:20:12;;;;;;;29.20;20.20;;;3.60;99.90;;;;;;5033136;28;20190;-78
2022/12/10 01:22:57;;;;;;;29.13;19.85;;;3.60;99.90;;;;;;5033407;28;20653;-77
2022/12/10 01:25:43;;;;;;;25.38;17.90;;;3.60;99.90;;;;;;5032804;28;20189;-77
2022/12/10 01:28:31;;;;;;;26.08;17.85;;;3.40;99.90;;;;;;5033122;28;20233;-78
2022/12/10 01:31:18;;;;;;;25.65;18.63;;;3.20;99.90;;;;;;5033720;28;20209;-77
2022/12/10 01:34:06;;;;;;;22.92;17.98;;;3.30;99.90;;;;;;5035390;28;20186;-77
2022/12/10 01:36:53;;;;;;;24.77;18.33;;;3.40;99.90;;;;;;5036015;28;20185;-77
2022/12/10 01:39:38;;;;;;;24.70;17.50;;;3.40;99.90;;;;;;5054532;28;20221;-77
2022/12/10 01:42:24;;;;;;;28.70;18.45;;;3.40;99.90;;;;;;5054163;28;20701;-77
2022/12/10 01:45:13;;;;;;;28.90;19.30;;;3.40;99.90;;;;;;5052297;28;20205;-77
2022/12/10 01:47:58;;;;;;;25.08;17.92;;;3.40;99.90;;;;;;5052287;28;20240;-77
2022/12/10 01:50:44;;;;;;;28.45;18.45;;;3.40;99.90;;;;;;5032094;28;20210;-78
2022/12/10 01:53:29;;;;;;;24.90;18.63;;;3.40;99.90;;;;;;5050783;28;20204;-78
2022/12/10 01:56:18;;;;;;;26.45;18.40;;;3.40;99.90;;;;;;5051992;28;20193;-78
2022/12/10 01:59:04;;;;;;;26.27;19.00;;;3.50;99.90;;;;;;5052165;28;20228;-78
2022/12/10 02:01:57;;;;;;;28.95;19.63;;;3.50;99.90;;;;;;5051535;28;20184;-77
2022/12/10 02:04:51;;;;;;;32.60;20.40;;;3.50;99.90;;;;;;5051942;28;20733;-77
2022/12/10 02:07:50;;;;;;;32.30;20.98;;;3.50;99.90;;;;;;5052002;28;20204;-77
2022/12/10 02:10:47;;;;;;;32.80;19.38;;;3.40;99.90;;;;;;5040555;28;20224;-78
2022/12/10 02:13:40;;;;;;;30.77;21.20;;;3.40;99.90;;;;;;5051515;28;20192;-77
2022/12/10 02:16:32;;;;;;;33.97;21.88;;;3.40;99.90;;;;;;5050633;28;20206;-77
2022/12/10 02:19:28;;;;;;;29.77;20.50;;;3.40;99.90;;;;;;5051382;28;20243;-77
2022/12/10 02:22:14;;;;;;;30.90;20.65;;;3.40;99.90;;;;;;5051710;28;20560;-77
2022/12/10 02:25:02;;;;;;;32.55;20.95;;;3.30;99.90;;;;;;5051335;28;20189;-77
2022/12/10 02:27:54;;;;;;;30.75;21.10;;;3.30;99.90;;;;;;5051822;28;20690;-77
2022/12/10 02:30:43;;;;;;;33.33;20.95;;;3.20;99.90;;;;;;5077197;22;20259;-76
2022/12/10 02:33:31;;;;;;;30.10;20.30;;;3.10;99.90;;;;;;5047993;28;20709;-75
2022/12/10 02:36:19;;;;;;;29.60;20.33;;;3.10;99.90;;;;;;5044398;28;20569;-76
2022/12/10 02:39:07;;;;;;;30.88;20.83;;;3.00;99.90;;;;;;5043124;28;20204;-76
2022/12/10 02:41:54;;;;;;;28.63;19.33;;;3.00;99.90;;;;;;5029644;28;20201;-76
2022/12/10 02:44:43;;;;;;;30.17;21.13;;;3.00;99.90;;;;;;5028054;28;20306;-76
2022/12/10 02:47:30;;;;;;;35.65;22.02;;;3.10;99.90;;;;;;5035933;28;20225;-76
2022/12/10 02:50:18;;;;;;;33.45;21.38;;;3.10;99.90;;;;;;5030965;28;20349;-76
2022/12/10 02:53:04;;;;;;;31.35;21.63;;;3.10;99.90;;;;;;5030236;28;20206;-74
2022/12/10 02:56:05;;;;;;;28.48;20.05;;;3.00;99.90;;;;;;5025607;28;20217;-74
2022/12/10 02:59:02;;;;;;;31.17;21.90;;;2.90;99.90;;;;;;5031057;28;20568;-74
2022/12/10 03:01:57;;;;;;;30.45;21.85;;;2.90;99.90;;;;;;5029835;28;20198;-73
2022/12/10 03:04:48;;;;;;;32.17;22.58;;;3.00;99.90;;;;;;5028436;28;20221;-73
2022/12/10 03:07:38;;;;;;;28.73;20.73;;;3.00;99.90;;;;;;5041656;28;20264;-74
2022/12/10 03:10:29;;;;;;;34.20;21.80;;;3.00;99.90;;;;;;5030371;28;20229;-73
2022/12/10 03:13:17;;;;;;;29.30;21.15;;;3.00;99.90;;;;;;5025918;28;20205;-74
2022/12/10 03:16:05;;;;;;;30.38;21.27;;;3.10;99.90;;;;;;5035759;28;20209;-73
2022/12/10 03:18:54;;;;;;;30.73;20.30;;;3.10;99.90;;;;;;5027753;28;20248;-74
2022/12/10 03:21:42;;;;;;;29.70;20.40;;;3.00;99.90;;;;;;5028984;28;20344;-74
2022/12/10 03:24:28;;;;;;;29.23;19.88;;;3.00;99.90;;;;;;5029517;28;20205;-74
2022/12/10 03:27:16;;;;;;;30.35;21.83;;;3.00;99.90;;;;;;5026079;28;20205;-74
2022/12/10 03:30:02;;;;;;;32.15;20.75;;;3.10;99.90;;;;;;5038375;28;20331;-73
2022/12/10 03:32:47;;;;;;;29.67;20.00;;;3.10;99.90;;;;;;5030577;28;20694;-74
2022/12/10 03:35:34;;;;;;;32.05;20.52;;;3.10;99.90;;;;;;5037818;28;20236;-74
2022/12/10 03:38:21;;;;;;;31.90;20.88;;;3.10;99.90;;;;;;5040875;28;20283;-74
2022/12/10 03:41:07;;;;;;;30.52;20.25;;;3.10;99.90;;;;;;5038461;28;20225;-73
2022/12/10 03:43:55;;;;;;;37.55;22.67;;;3.10;99.90;;;;;;5021087;28;20288;-75
2022/12/10 03:46:40;;;;;;;33.25;22.35;;;3.10;99.90;;;;;;5036919;28;20221;-76
2022/12/10 03:49:26;;;;;;;31.02;21.40;;;3.10;99.90;;;;;;5034078;28;20229;-76
2022/12/10 03:52:12;;;;;;;32.47;21.25;;;3.10;99.90;;;;;;5024484;28;20238;-75
2022/12/10 03:54:59;;;;;;;33.42;22.33;;;3.10;99.90;;;;;;5023272;28;20199;-76
2022/12/10 03:57:44;;;;;;;28.73;20.88;;;3.00;99.90;;;;;;5021827;28;20201;-76
2022/12/10 04:00:30;;;;;;;34.85;22.10;;;3.00;99.90;;;;;;5022766;28;20272;-75
2022/12/10 04:03:15;;;;;;;29.52;19.88;;;2.90;99.90;;;;;;5025412;28;20202;-76
2022/12/10 04:06:03;;;;;;;29.83;19.75;;;2.90;99.90;;;;;;5028284;28;20213;-76
2022/12/10 04:08:49;;;;;;;30.75;20.63;;;2.90;99.90;;;;;;5025942;28;20569;-76
2022/12/10 04:11:36;;;;;;;30.38;21.35;;;2.90;99.90;;;;;;5024822;28;20225;-74
2022/12/10 04:17:25;;;;;;;32.20;20.73;;;2.80;99.90;;;;;;5019792;28;20636;-76
2022/12/10 04:26:51;;;;;;;34.50;22.20;;;2.80;99.90;;;;;;5024692;28;20275;-76
2022/12/10 04:29:27;;;;;;;30.63;21.33;;;2.90;99.90;;;;;;5030668;28;20695;-76
2022/12/10 04:32:13;;;;;;;33.72;22.10;;;2.80;99.90;;;;;;5020987;28;20230;-76
2022/12/10 04:34:58;;;;;;;35.22;23.17;;;2.80;99.90;;;;;;5028135;28;20213;-76
2022/12/10 04:37:44;;;;;;;33.10;22.67;;;2.70;99.90;;;;;;5020139;28;20210;-76
2022/12/10 04:40:29;;;;;;;35.47;22.27;;;2.70;99.90;;;;;;5019808;28;20277;-76
2022/12/10 04:43:15;;;;;;;32.50;22.10;;;2.70;99.90;;;;;;5027934;28;20280;-75
2022/12/10 04:46:02;;;;;;;36.70;24.35;;;2.70;99.90;;;;;;5029934;28;20209;-76
2022/12/10 04:48:47;;;;;;;37.80;23.40;;;2.70;99.90;;;;;;5020879;28;20568;-76
2022/12/10 04:51:33;;;;;;;41.28;24.90;;;2.80;99.90;;;;;;5017006;28;20613;-76
2022/12/10 04:54:19;;;;;;;36.03;22.35;;;2.80;99.90;;;;;;5026424;28;20293;-76
2022/12/10 04:57:04;;;;;;;32.00;21.30;;;2.70;99.90;;;;;;5023690;28;20348;-76
2022/12/10 04:59:50;;;;;;;33.50;23.88;;;2.80;99.90;;;;;;5031052;28;20237;-76
2022/12/10 05:02:37;;;;;;;34.10;22.15;;;2.70;99.90;;;;;;5034220;28;20201;-76
2022/12/10 05:05:22;;;;;;;34.90;22.10;;;2.70;99.90;;;;;;5035109;28;20201;-76
2022/12/10 05:08:08;;;;;;;34.15;22.90;;;2.70;99.90;;;;;;5027851;28;20568;-76
2022/12/10 05:10:54;;;;;;;33.25;22.67;;;2.70;99.90;;;;;;5023100;28;20617;-76
2022/12/10 05:13:40;;;;;;;36.35;22.60;;;2.60;99.90;;;;;;5030810;28;20313;-76
2022/12/10 05:16:29;;;;;;;37.40;23.52;;;2.60;99.90;;;;;;5032374;28;20213;-76
2022/12/10 05:19:16;;;;;;;34.08;23.27;;;2.70;99.90;;;;;;5023846;28;20209;-74
2022/12/10 05:25:05;;;;;;;36.05;21.42;;;2.60;99.90;;;;;;5031864;28;20213;-76
2022/12/10 05:27:50;;;;;;;36.65;24.67;;;2.60;99.90;;;;;;5029534;28;20225;-74
2022/12/10 05:30:36;;;;;;;34.58;23.25;;;2.60;99.90;;;;;;5018101;28;20232;-75
2022/12/10 05:33:21;;;;;;;31.73;21.80;;;2.60;99.90;;;;;;5022268;28;20738;-76
2022/12/10 05:36:10;;;;;;;35.22;21.92;;;2.60;99.90;;;;;;5028336;28;20210;-76
2022/12/10 05:38:57;;;;;;;39.47;23.15;;;2.50;99.90;;;;;;5028475;28;20210;-76
2022/12/10 05:41:45;;;;;;;34.05;22.92;;;2.50;99.90;;;;;;5023333;28;20440;-75
2022/12/10 05:44:31;;;;;;;31.70;22.17;;;2.40;99.90;;;;;;5030685;28;20204;-75
2022/12/10 05:47:16;;;;;;;33.42;22.17;;;2.50;99.90;;;;;;5024282;28;20248;-76
2022/12/10 05:50:02;;;;;;;31.15;22.50;;;2.40;99.90;;;;;;5018969;28;20791;-75
2022/12/10 05:52:51;;;;;;;31.42;20.65;;;2.40;99.90;;;;;;5019417;28;20230;-76
2022/12/10 05:55:36;;;;;;;29.98;20.92;;;2.40;99.90;;;;;;5024999;28;20240;-74
2022/12/10 05:58:22;;;;;;;33.67;22.35;;;2.50;99.90;;;;;;5024436;28;20679;-73
2022/12/10 06:01:10;;;;;;;35.67;22.13;;;2.50;99.90;;;;;;5017331;28;20226;-72
2022/12/10 06:03:56;;;;;;;31.92;22.38;;;2.50;99.90;;;;;;5021334;28;20261;-73
2022/12/10 06:06:42;;;;;;;34.13;22.23;;;2.50;99.90;;;;;;5022378;28;20886;-74
2022/12/10 06:09:29;;;;;;;32.97;22.48;;;2.40;99.90;;;;;;5028041;28;20256;-73
2022/12/10 06:12:15;;;;;;;30.42;21.98;;;2.40;99.90;;;;;;5021407;28;20358;-72
2022/12/10 06:15:00;;;;;;;32.38;22.55;;;2.30;99.90;;;;;;5022630;28;20277;-73
2022/12/10 06:17:46;;;;;;;33.33;23.90;;;2.40;99.90;;;;;;5025000;28;20205;-73
2022/12/10 06:20:32;;;;;;;30.65;21.88;;;2.50;99.90;;;;;;5025364;28;20229;-72
2022/12/10 06:23:17;;;;;;;33.42;20.80;;;2.50;99.90;;;;;;5028772;28;20284;-74
2022/12/10 06:26:06;;;;;;;34.50;22.35;;;2.40;99.90;;;;;;5030195;28;20213;-74
2022/12/10 06:28:53;;;;;;;34.72;22.05;;;2.40;99.90;;;;;;5029119;28;20287;-73
2022/12/10 06:31:38;;;;;;;31.70;21.52;;;2.50;99.90;;;;;;5039410;28;20352;-74
2022/12/10 06:34:24;;;;;;;29.67;21.63;;;2.50;99.90;;;;;;5038926;28;20760;-74
2022/12/10 06:37:10;;;;;;;29.58;21.35;;;2.50;99.90;;;;;;5034644;28;20217;-74
2022/12/10 06:39:55;;;;;;;35.00;22.55;;;2.50;99.90;;;;;;5019705;28;20710;-74
2022/12/10 06:42:42;;;;;;;27.65;19.40;;;2.60;99.90;;;;;;5029599;28;20256;-74
2022/12/10 06:45:28;;;;;;;30.40;20.38;;;2.60;99.90;;;;;;5031122;28;20283;-74
2022/12/10 06:48:13;;;;;;;30.42;21.45;;;2.70;99.90;;;;;;5041803;28;20228;-74
2022/12/10 06:50:59;;;;;;;33.95;21.50;;;2.70;99.90;;;;;;5020435;28;20230;-73
2022/12/10 06:53:45;;;;;;;28.17;20.60;;;2.70;99.90;;;;;;5020578;28;20599;-74
2022/12/10 06:56:31;;;;;;;34.88;21.83;;;2.70;99.90;;;;;;5021669;28;20210;-74
2022/12/10 06:59:17;;;;;;;31.13;20.05;;;2.80;99.90;;;;;;5015199;28;20205;-75
2022/12/10 07:02:04;;;;;;;31.02;21.67;;;2.80;99.90;;;;;;5021124;28;20210;-75
2022/12/10 07:04:49;;;;;;;33.85;22.95;;;2.80;99.90;;;;;;5024617;28;20695;-74
2022/12/10 07:07:36;;;;;;;29.27;20.55;;;2.80;99.90;;;;;;5023277;28;20221;-74
2022/12/10 07:10:22;;;;;;;29.08;19.63;;;2.80;99.90;;;;;;5023673;28;20245;-73
2022/12/10 07:13:07;;;;;;;34.65;22.25;;;2.80;99.90;;;;;;5023782;28;20718;-74
2022/12/10 07:15:54;;;;;;;30.42;21.55;;;2.70;99.90;;;;;;5024030;28;20213;-74
2022/12/10 07:18:39;;;;;;;33.22;22.25;;;2.80;99.90;;;;;;5019724;28;20209;-74
2022/12/10 07:21:27;;;;;;;33.28;22.52;;;2.80;99.90;;;;;;5025601;28;20221;-74
2022/12/10 07:24:18;;;;;;;35.92;22.55;;;2.70;99.90;;;;;;5026337;28;20206;-73
2022/12/10 07:27:06;;;;;;;34.53;24.10;;;2.70;99.90;;;;;;5029418;28;20240;-73
2022/12/10 07:29:51;;;;;;;37.83;24.23;;;2.70;99.90;;;;;;5022889;28;20269;-74
2022/12/10 07:32:38;;;;;;;39.80;25.50;;;2.90;99.90;;;;;;5029064;28;20283;-74
2022/12/10 07:35:24;;;;;;;37.13;23.27;;;2.90;99.90;;;;;;5028514;28;20202;-74
2022/12/10 07:38:09;;;;;;;33.35;22.55;;;2.90;99.90;;;;;;5026680;28;20248;-73
2022/12/10 07:40:55;;;;;;;30.38;22.67;;;2.80;99.90;;;;;;5025256;28;20226;-73
2022/12/10 07:43:43;;;;;;;34.90;23.77;;;2.80;99.90;;;;;;5025672;28;20706;-73
2022/12/10 07:46:31;;;;;;;38.65;22.67;;;2.90;99.90;;;;;;5031593;28;20196;-74
2022/12/10 07:49:18;;;;;;;35.65;23.00;;;2.90;99.90;;;;;;5025020;28;20791;-74
2022/12/10 07:52:04;;;;;;;34.55;23.52;;;2.80;99.90;;;;;;5019606;28;20593;-73
2022/12/10 07:54:49;;;;;;;31.63;22.80;;;2.90;99.90;;;;;;5025049;28;20204;-74
2022/12/10 07:57:35;;;;;;;33.97;22.60;;;2.90;99.90;;;;;;5024092;28;21060;-73
2022/12/10 08:00:21;;;;;;;34.58;23.85;;;2.90;99.90;;;;;;5034276;28;20222;-73
2022/12/10 08:03:06;;;;;;;32.72;22.42;;;3.00;99.90;;;;;;5023289;28;20205;-73
2022/12/10 08:06:03;;;;;;;40.67;24.08;;;3.10;99.90;;;;;;5020420;28;20603;-74
2022/12/10 08:08:49;;;;;;;32.72;22.27;;;3.10;99.90;;;;;;5021863;28;20209;-73
2022/12/10 08:11:35;;;;;;;32.65;23.27;;;3.20;99.90;;;;;;5025674;28;20583;-73
2022/12/10 08:14:20;;;;;;;35.85;23.73;;;3.20;99.90;;;;;;5038911;28;20213;-73
2022/12/10 08:17:06;;;;;;;35.00;22.73;;;3.30;99.90;;;;;;5034895;28;20248;-73
2022/12/10 08:19:52;;;;;;;37.50;23.38;;;3.30;99.90;;;;;;5021304;28;20225;-73
2022/12/10 08:22:39;;;;;;;34.85;22.77;;;3.30;99.90;;;;;;5029044;28;20206;-75
2022/12/10 08:25:24;;;;;;;33.55;22.27;;;3.20;99.90;;;;;;5034984;28;20212;-75
2022/12/10 08:28:10;;;;;;;43.40;24.85;;;3.30;99.90;;;;;;5035456;28;20228;-75
2022/12/10 08:30:56;;;;;;;36.83;25.65;;;3.30;99.90;;;;;;5057381;22;20240;-78
2022/12/10 08:33:43;;;;;;;37.20;24.92;;;3.30;99.90;;;;;;5038251;28;20217;-77
2022/12/10 08:36:30;;;;;;;35.58;24.00;;;3.40;99.90;;;;;;5046676;28;20657;-78
2022/12/10 08:39:17;;;;;;;41.22;26.08;;;3.40;99.90;;;;;;5040363;28;20206;-78
2022/12/10 08:42:03;;;;;;;43.03;26.20;;;3.20;99.90;;;;;;5028010;28;20206;-79
2022/12/10 08:44:50;;;;;;;38.97;24.50;;;3.20;99.90;;;;;;5021277;28;20321;-78
2022/12/10 08:47:35;;;;;;;35.95;23.83;;;3.20;99.90;;;;;;5022785;28;20209;-78
2022/12/10 08:50:21;;;;;;;38.25;25.30;;;3.20;99.90;;;;;;5025916;28;20217;-78
2022/12/10 08:53:07;;;;;;;32.97;22.65;;;3.30;99.90;;;;;;5019925;28;20790;-77
2022/12/10 08:55:55;;;;;;;38.20;25.73;;;3.30;99.90;;;;;;5026015;28;20201;-77
2022/12/10 08:58:40;;;;;;;33.95;23.45;;;3.30;99.90;;;;;;5018127;28;20733;-78
2022/12/10 09:01:26;;;;;;;37.20;24.95;;;3.30;99.90;;;;;;5021619;28;21303;-78
2022/12/10 09:04:12;;;;;;;41.83;26.98;;;3.20;99.90;;;;;;5025867;28;20679;-77
2022/12/10 09:06:58;;;;;;;36.47;24.60;;;3.20;99.90;;;;;;5021575;28;20253;-77
2022/12/10 09:09:43;;;;;;;36.17;24.42;;;3.30;99.90;;;;;;5016289;28;20202;-78
2022/12/10 09:12:30;;;;;;;35.40;24.02;;;3.40;99.90;;;;;;5018818;28;20213;-77
2022/12/10 09:15:16;;;;;;;32.00;21.48;;;3.40;99.90;;;;;;5018638;28;20251;-78
2022/12/10 09:18:02;;;;;;;28.63;20.50;;;3.30;99.90;;;;;;5018292;28;20309;-78
2022/12/10 09:20:47;;;;;;;33.90;21.35;;;3.40;99.90;;;;;;5023998;28;20720;-78
2022/12/10 09:23:33;;;;;;;33.97;22.33;;;3.50;99.90;;;;;;5024038;28;20224;-78
2022/12/10 09:26:20;;;;;;;30.08;20.50;;;3.60;99.90;;;;;;5025148;28;20201;-78
2022/12/10 09:29:07;;;;;;;34.03;21.90;;;3.60;99.90;;;;;;5018443;28;20213;-78
2022/12/10 09:31:53;;;;;;;33.85;22.35;;;3.70;99.90;;;;;;5016455;28;20219;-78
2022/12/10 09:34:38;;;;;;;37.47;23.33;;;3.70;99.90;;;;;;5028637;28;20282;-78
2022/12/10 09:37:24;;;;;;;29.50;19.98;;;3.70;99.90;;;;;;5022030;28;20229;-78
2022/12/10 09:40:15;;;;;;;30.50;19.70;;;3.60;99.90;;;;;;5019685;28;20245;-77
2022/12/10 09:43:06;;;;;;;24.02;17.17;;;3.60;99.90;;;;;;5025906;28;20300;-77
2022/12/10 09:46:03;;;;;;;28.08;19.00;;;3.60;99.90;;;;;;5020675;28;20206;-77
2022/12/10 09:49:01;;;;;;;27.00;17.95;;;3.60;99.90;;;;;;5024574;28;20267;-77
2022/12/10 09:51:46;;;;;;;25.48;17.67;;;3.50;99.90;;;;;;5018546;28;20272;-77
2022/12/10 09:54:34;;;;;;;29.00;19.48;;;3.40;99.90;;;;;;5018236;28;20206;-76
2022/12/10 09:57:24;;;;;;;28.95;20.02;;;3.40;99.90;;;;;;5030974;28;20345;-76
2022/12/10 10:00:20;;;;;;;25.20;17.15;;;3.30;99.90;;;;;;5021220;28;20230;-76
2022/12/10 10:03:12;;;;;;;30.60;21.13;;;3.40;99.90;;;;;;5022185;28;20194;-79
2022/12/10 10:05:58;;;;;;;29.98;19.98;;;3.40;99.90;;;;;;5020444;28;20301;-76
2022/12/10 10:08:46;;;;;;;27.02;19.13;;;3.40;99.90;;;;;;5018382;28;20570;-77
2022/12/10 10:11:34;;;;;;;24.40;16.70;;;3.40;99.90;;;;;;5019950;28;20369;-77
2022/12/10 10:14:26;;;;;;;25.23;17.08;;;3.40;99.90;;;;;;5003550;28;20718;-77
2022/12/10 10:17:17;;;;;;;22.55;16.20;;;3.40;99.90;;;;;;5014413;28;20203;-77
2022/12/10 10:20:05;;;;;;;24.30;15.82;;;3.40;99.90;;;;;;5018155;28;20229;-77
2022/12/10 10:22:52;;;;;;;21.75;14.68;;;3.50;99.90;;;;;;5026020;28;20193;-76
2022/12/10 10:25:38;;;;;;;16.65;12.30;;;3.80;99.90;;;;;;5023256;28;20537;-77
2022/12/10 10:28:24;;;;;;;16.70;11.20;;;4.30;99.90;;;;;;5018223;28;20202;-77
2022/12/10 10:31:20;;;;;;;18.23;12.65;;;4.60;99.90;;;;;;5019860;28;20240;-77
2022/12/10 10:34:12;;;;;;;17.00;11.35;;;4.90;99.90;;;;;;5020235;28;20336;-78
2022/12/10 10:36:59;;;;;;;19.55;14.00;;;5.40;99.90;;;;;;5021561;28;20233;-78
2022/12/10 10:39:49;;;;;;;21.15;15.38;;;5.80;99.90;;;;;;5020286;28;20227;-78
2022/12/10 10:42:38;;;;;;;24.20;16.70;;;6.00;99.90;;;;;;5020502;28;20283;-78
2022/12/10 10:45:48;;;;;;;21.75;15.32;;;5.90;99.90;;;;;;5023254;28;20221;-77
2022/12/10 10:48:34;;;;;;;22.02;15.00;;;5.70;99.90;;;;;;5024487;28;20288;-77
2022/12/10 10:51:23;;;;;;;21.27;14.57;;;5.40;99.90;;;;;;5024569;28;20234;-77
2022/12/10 10:54:09;;;;;;;25.02;17.50;;;5.10;99.90;;;;;;5027358;28;20209;-77
2022/12/10 10:56:55;;;;;;;24.30;17.10;;;4.90;99.90;;;;;;5027129;28;20201;-77
2022/12/10 10:59:41;;;;;;;25.50;16.77;;;4.70;99.90;;;;;;5026230;28;20292;-77
2022/12/10 11:02:33;;;;;;;23.70;16.10;;;4.60;99.90;;;;;;5021132;28;20202;-77
2022/12/10 11:05:23;;;;;;;26.00;17.63;;;4.60;99.90;;;;;;5029187;28;20229;-77
2022/12/10 11:08:18;;;;;;;24.33;16.90;;;4.50;99.90;;;;;;5029106;28;20205;-77
2022/12/10 11:11:07;;;;;;;25.73;17.80;;;4.40;99.90;;;;;;5023776;28;20232;-77
2022/12/10 11:13:52;;;;;;;26.13;18.25;;;4.30;99.90;;;;;;5022863;28;20242;-77
2022/12/10 11:16:39;;;;;;;23.80;17.17;;;4.40;99.90;;;;;;5027582;28;20201;-77
2022/12/10 11:19:26;;;;;;;26.10;16.92;;;4.30;99.90;;;;;;5022334;28;20198;-78
2022/12/10 11:22:18;;;;;;;25.30;17.70;;;4.30;99.90;;;;;;5020789;28;20209;-77
2022/12/10 11:25:06;;;;;;;26.60;17.88;;;4.30;99.90;;;;;;5019150;28;20193;-77
2022/12/10 11:28:01;;;;;;;27.05;17.15;;;4.20;99.90;;;;;;5022488;28;20209;-77
2022/12/10 11:30:54;;;;;;;28.33;18.63;;;4.20;99.90;;;;;;5021440;28;20281;-78
2022/12/10 11:33:50;;;;;;;27.10;19.00;;;4.20;99.90;;;;;;5025222;28;20249;-77
2022/12/10 11:36:46;;;;;;;25.98;17.40;;;4.10;99.90;;;;;;5028901;28;20210;-77
2022/12/10 11:39:54;;;;;;;28.30;18.95;;;4.10;99.90;;;;;;5015952;28;20705;-77
2022/12/10 11:42:48;;;;;;;25.70;17.95;;;4.10;99.90;;;;;;5027798;28;20198;-77
2022/12/10 11:45:51;;;;;;;24.20;17.08;;;4.10;99.90;;;;;;5027159;28;20244;-77
2022/12/10 11:48:52;;;;;;;25.20;18.25;;;4.10;99.90;;;;;;5028369;28;20599;-78
2022/12/10 11:51:45;;;;;;;24.98;18.48;;;4.10;99.90;;;;;;5019783;28;20371;-77
2022/12/10 11:54:45;;;;;;;28.13;19.08;;;4.10;99.90;;;;;;5027422;28;20681;-77
2022/12/10 11:57:40;;;;;;;23.73;16.92;;;4.10;99.90;;;;;;5026625;28;20205;-77
2022/12/10 12:00:28;;;;;;;24.77;17.10;;;4.20;99.90;;;;;;5017665;28;20226;-78
2022/12/10 12:03:49;;;;;;;23.92;16.95;;;4.10;99.90;;;;;;5021052;28;20205;-76
2022/12/10 12:06:52;;;;;;;25.77;17.77;;;4.10;99.90;;;;;;5024888;28;20431;-77
2022/12/10 12:09:48;;;;;;;24.42;17.55;;;4.20;99.90;;;;;;5021823;28;20206;-76
2022/12/10 12:12:42;;;;;;;25.15;17.95;;;4.20;99.90;;;;;;5022140;28;20267;-77
2022/12/10 12:15:32;;;;;;;25.25;16.30;;;4.20;99.90;;;;;;5032659;28;20720;-76
2022/12/10 12:18:22;;;;;;;20.48;14.60;;;4.30;99.90;;;;;;5026573;28;20687;-77
2022/12/10 12:21:12;;;;;;;20.45;14.70;;;4.30;99.90;;;;;;5029399;28;20230;-77
2022/12/10 12:24:02;;;;;;;22.92;14.98;;;4.30;99.90;;;;;;5015616;28;20206;-77
2022/12/10 12:26:53;;;;;;;20.65;15.18;;;4.30;99.90;;;;;;5026233;28;20283;-77
2022/12/10 12:29:45;;;;;;;24.50;16.08;;;4.40;99.90;;;;;;5028100;28;20225;-77
2022/12/10 12:32:39;;;;;;;23.13;14.55;;;4.40;99.90;;;;;;5024866;28;20202;-77
2022/12/10 12:35:33;;;;;;;24.58;16.15;;;4.30;99.90;;;;;;5021473;28;20198;-77
2022/12/10 12:38:29;;;;;;;20.08;14.80;;;4.30;99.90;;;;;;5021690;28;20206;-77
2022/12/10 12:41:18;;;;;;;22.10;15.75;;;4.20;99.90;;;;;;5015572;28;20742;-77
2022/12/10 12:44:11;;;;;;;23.08;16.60;;;4.20;99.90;;;;;;5022239;28;20271;-77
2022/12/10 12:46:56;;;;;;;24.55;17.08;;;4.10;99.90;;;;;;5018488;28;20321;-76
2022/12/10 12:49:43;;;;;;;21.45;15.73;;;4.20;99.90;;;;;;5027782;28;20206;-77
2022/12/10 12:52:38;;;;;;;20.40;14.73;;;4.30;99.90;;;;;;5017459;28;20281;-77
2022/12/10 12:55:32;;;;;;;20.98;15.65;;;4.30;99.90;;;;;;5027210;28;20213;-76
2022/12/10 12:58:31;;;;;;;21.25;14.18;;;4.20;99.90;;;;;;5025680;28;20680;-77
2022/12/10 13:01:27;;;;;;;18.70;13.60;;;4.10;99.90;;;;;;5025150;28;20718;-77
2022/12/10 13:04:13;;;;;;;19.60;14.45;;;4.10;99.90;;;;;;5024874;28;20201;-77
2022/12/10 13:07:28;;;;;;;18.95;13.85;;;4.20;99.90;;;;;;5020685;28;20218;-77
2022/12/10 13:10:26;;;;;;;16.95;13.38;;;4.10;99.90;;;;;;5022843;28;20332;-78
2022/12/10 13:13:25;;;;;;;18.05;12.70;;;4.20;99.90;;;;;;5020054;28;20217;-78
2022/12/10 13:16:35;;;;;;;23.65;14.95;;;4.20;99.90;;;;;;5032500;28;20197;-78
2022/12/10 13:19:30;;;;;;;17.77;13.23;;;4.30;99.90;;;;;;5005317;28;20300;-78
2022/12/10 13:22:44;;;;;;;18.55;12.70;;;4.20;99.90;;;;;;5031432;28;20468;-77
2022/12/10 13:25:55;;;;;;;18.95;12.88;;;4.10;99.90;;;;;;5014731;28;20614;-77
2022/12/10 13:28:50;;;;;;;20.48;14.38;;;4.10;99.90;;;;;;5029853;28;20194;-78
2022/12/10 13:31:37;;;;;;;18.05;12.55;;;4.20;99.90;;;;;;5024210;28;20627;-77
2022/12/10 13:34:32;;;;;;;14.63;11.77;;;4.10;99.90;;;;;;5031198;28;20229;-77
2022/12/10 13:37:32;;;;;;;18.15;11.93;;;4.10;99.90;;;;;;5032938;28;20193;-78
2022/12/10 13:40:25;;;;;;;17.35;13.18;;;4.20;99.90;;;;;;5030392;28;20237;-77
2022/12/10 13:46:34;;;;;;;19.48;13.65;;;4.30;99.90;;;;;;5027631;28;20404;-78
2022/12/10 13:49:21;;;;;;;16.23;12.27;;;4.40;99.90;;;;;;5032587;28;20198;-78
2022/12/10 13:52:12;;;;;;;15.77;11.32;;;4.30;99.90;;;;;;5031575;28;20573;-77
2022/12/10 13:55:15;;;;;;;16.50;11.80;;;4.30;99.90;;;;;;5024754;28;20217;-78
2022/12/10 13:58:18;;;;;;;14.95;10.98;;;4.30;99.90;;;;;;5027242;28;20664;-78
2022/12/10 14:01:16;;;;;;;15.93;12.38;;;4.30;99.90;;;;;;5019172;28;20296;-78
2022/12/10 14:04:35;;;;;;;25.15;14.25;;;4.20;99.90;;;;;;5023159;28;20193;-78
2022/12/10 14:07:22;;;;;;;18.85;14.35;;;4.20;99.90;;;;;;5001002;28;20741;-78
2022/12/10 14:10:16;;;;;;;24.85;15.38;;;4.20;99.90;;;;;;5020839;28;20218;-77
2022/12/10 14:13:04;;;;;;;21.35;15.50;;;4.10;99.90;;;;;;5017692;28;20206;-78
2022/12/10 14:15:55;;;;;;;18.95;13.88;;;4.00;99.90;;;;;;5022284;28;20201;-78
2022/12/10 14:18:44;;;;;;;19.98;14.73;;;4.10;99.90;;;;;;5018845;28;20197;-79
2022/12/10 14:21:35;;;;;;;23.85;13.65;;;4.10;99.90;;;;;;5020045;28;20229;-78
2022/12/10 14:24:29;;;;;;;28.33;15.63;;;3.90;99.90;;;;;;5019078;28;20201;-77
2022/12/10 14:27:17;;;;;;;21.60;15.52;;;3.80;99.90;;;;;;5022737;28;20252;-77
2022/12/10 14:30:07;;;;;;;20.87;15.53;;;3.80;99.90;;;;;;5029749;23;20276;-75
2022/12/10 14:32:59;;;;;;;21.48;15.45;;;3.80;99.90;;;;;;5037821;28;20247;-75
2022/12/10 14:35:48;;;;;;;22.30;15.70;;;3.80;99.90;;;;;;5041659;28;20749;-75
2022/12/10 14:38:35;;;;;;;19.80;14.18;;;3.80;99.90;;;;;;5039762;28;20279;-75
2022/12/10 14:41:24;;;;;;;22.27;14.80;;;3.80;99.90;;;;;;5030358;28;20249;-75
2022/12/10 14:44:15;;;;;;;22.00;15.15;;;3.80;99.90;;;;;;5046311;28;20200;-75